sensor_id;sensor_type;location;lat;lon;timestamp;temperature;humidity
36652;DHT22;53334;51.976;20.144;2024-02-15T00:01:03;26.10;43.30
36652;DHT22;53334;51.976;20.144;2024-02-15T00:03:36;26.10;43.20
36652;DHT22;53334;51.976;20.144;2024-02-15T00:06:10;26.10;43.20
36652;DHT22;53334;51.976;20.144;2024-02-15T00:08:44;26.10;43.10
36652;DHT22;53334;51.976;20.144;2024-02-15T00:11:17;26.10;43.20
36652;DHT22;53334;51.976;20.144;2024-02-15T00:13:50;26.10;43.10
36652;DHT22;53334;51.976;20.144;2024-02-15T00:16:24;26.10;43.20
36652;DHT22;53334;51.976;20.144;2024-02-15T00:18:59;26.10;43.30
36652;DHT22;53334;51.976;20.144;2024-02-15T00:21:34;26.10;43.10
36652;DHT22;53334;51.976;20.144;2024-02-15T00:24:08;26.10;42.90
36652;DHT22;53334;51.976;20.144;2024-02-15T00:26:42;26.10;43.00
36652;DHT22;53334;51.976;20.144;2024-02-15T00:29:15;26.10;43.20
36652;DHT22;53334;51.976;20.144;2024-02-15T00:31:49;26.10;42.90
36652;DHT22;53334;51.976;20.144;2024-02-15T00:34:22;26.10;42.80
36652;DHT22;53334;51.976;20.144;2024-02-15T00:36:59;26.00;42.60
36652;DHT22;53334;51.976;20.144;2024-02-15T00:39:32;26.10;42.50
36652;DHT22;53334;51.976;20.144;2024-02-15T00:42:06;26.00;42.30
36652;DHT22;53334;51.976;20.144;2024-02-15T00:44:41;26.00;42.20
36652;DHT22;53334;51.976;20.144;2024-02-15T00:47:14;26.00;42.10
36652;DHT22;53334;51.976;20.144;2024-02-15T00:49:50;26.00;42.00
36652;DHT22;53334;51.976;20.144;2024-02-15T00:52:25;26.00;42.00
36652;DHT22;53334;51.976;20.144;2024-02-15T00:54:58;26.00;41.90
36652;DHT22;53334;51.976;20.144;2024-02-15T00:57:32;26.00;41.80
36652;DHT22;53334;51.976;20.144;2024-02-15T01:00:08;26.00;41.80
36652;DHT22;53334;51.976;20.144;2024-02-15T01:02:42;26.00;41.80
36652;DHT22;53334;51.976;20.144;2024-02-15T01:05:16;26.00;41.70
36652;DHT22;53334;51.976;20.144;2024-02-15T01:07:52;26.00;41.50
36652;DHT22;53334;51.976;20.144;2024-02-15T01:10:28;26.00;41.60
36652;DHT22;53334;51.976;20.144;2024-02-15T01:13:01;26.00;41.60
36652;DHT22;53334;51.976;20.144;2024-02-15T01:15:35;26.00;41.40
36652;DHT22;53334;51.976;20.144;2024-02-15T01:18:09;26.00;42.10
36652;DHT22;53334;51.976;20.144;2024-02-15T01:20:43;26.00;41.50
36652;DHT22;53334;51.976;20.144;2024-02-15T01:23:19;25.90;41.30
36652;DHT22;53334;51.976;20.144;2024-02-15T01:25:55;25.90;41.30
36652;DHT22;53334;51.976;20.144;2024-02-15T01:28:30;25.90;41.30
36652;DHT22;53334;51.976;20.144;2024-02-15T01:31:03;26.00;41.30
36652;DHT22;53334;51.976;20.144;2024-02-15T01:33:39;26.00;41.20
36652;DHT22;53334;51.976;20.144;2024-02-15T01:36:14;25.90;41.10
36652;DHT22;53334;51.976;20.144;2024-02-15T01:38:50;26.00;41.10
36652;DHT22;53334;51.976;20.144;2024-02-15T01:41:24;26.00;41.10
36652;DHT22;53334;51.976;20.144;2024-02-15T01:43:57;26.00;41.10
36652;DHT22;53334;51.976;20.144;2024-02-15T01:46:31;25.90;41.30
36652;DHT22;53334;51.976;20.144;2024-02-15T01:49:06;25.90;41.50
36652;DHT22;53334;51.976;20.144;2024-02-15T01:51:42;25.90;41.70
36652;DHT22;53334;51.976;20.144;2024-02-15T01:54:18;25.90;41.90
36652;DHT22;53334;51.976;20.144;2024-02-15T01:56:53;26.00;42.10
36652;DHT22;53334;51.976;20.144;2024-02-15T01:59:28;26.00;42.10
36652;DHT22;53334;51.976;20.144;2024-02-15T02:02:01;26.00;42.20
36652;DHT22;53334;51.976;20.144;2024-02-15T02:04:37;26.00;42.20
36652;DHT22;53334;51.976;20.144;2024-02-15T02:07:11;26.00;42.20
36652;DHT22;53334;51.976;20.144;2024-02-15T02:09:48;25.90;42.10
36652;DHT22;53334;51.976;20.144;2024-02-15T02:12:22;25.90;42.20
36652;DHT22;53334;51.976;20.144;2024-02-15T02:14:57;26.00;42.80
36652;DHT22;53334;51.976;20.144;2024-02-15T02:17:31;25.90;42.10
36652;DHT22;53334;51.976;20.144;2024-02-15T02:20:07;26.00;42.20
36652;DHT22;53334;51.976;20.144;2024-02-15T02:22:46;26.00;42.20
36652;DHT22;53334;51.976;20.144;2024-02-15T02:25:22;26.00;42.20
36652;DHT22;53334;51.976;20.144;2024-02-15T02:27:58;26.00;42.20
36652;DHT22;53334;51.976;20.144;2024-02-15T02:30:33;26.00;42.20
36652;DHT22;53334;51.976;20.144;2024-02-15T02:33:10;26.00;42.20
36652;DHT22;53334;51.976;20.144;2024-02-15T02:35:46;26.00;42.20
36652;DHT22;53334;51.976;20.144;2024-02-15T02:38:21;26.00;42.20
36652;DHT22;53334;51.976;20.144;2024-02-15T02:40:59;25.90;42.20
36652;DHT22;53334;51.976;20.144;2024-02-15T02:43:33;25.90;42.20
36652;DHT22;53334;51.976;20.144;2024-02-15T02:46:09;26.00;42.30
36652;DHT22;53334;51.976;20.144;2024-02-15T02:48:43;26.00;42.40
36652;DHT22;53334;51.976;20.144;2024-02-15T02:51:17;26.00;42.40
36652;DHT22;53334;51.976;20.144;2024-02-15T02:53:51;26.00;42.40
36652;DHT22;53334;51.976;20.144;2024-02-15T02:56:26;26.00;42.50
36652;DHT22;53334;51.976;20.144;2024-02-15T02:59:00;26.00;42.40
36652;DHT22;53334;51.976;20.144;2024-02-15T03:01:34;26.00;42.40
36652;DHT22;53334;51.976;20.144;2024-02-15T03:04:07;26.00;42.40
36652;DHT22;53334;51.976;20.144;2024-02-15T03:06:41;25.90;42.30
36652;DHT22;53334;51.976;20.144;2024-02-15T03:09:15;25.90;42.20
36652;DHT22;53334;51.976;20.144;2024-02-15T03:11:50;25.90;42.30
36652;DHT22;53334;51.976;20.144;2024-02-15T03:14:23;25.90;42.10
36652;DHT22;53334;51.976;20.144;2024-02-15T03:16:57;25.90;42.30
36652;DHT22;53334;51.976;20.144;2024-02-15T03:19:31;25.90;42.10
36652;DHT22;53334;51.976;20.144;2024-02-15T03:22:04;25.90;42.20
36652;DHT22;53334;51.976;20.144;2024-02-15T03:24:38;25.90;42.30
36652;DHT22;53334;51.976;20.144;2024-02-15T03:27:13;25.90;42.30
36652;DHT22;53334;51.976;20.144;2024-02-15T03:29:46;25.90;42.40
36652;DHT22;53334;51.976;20.144;2024-02-15T03:32:20;25.90;42.50
36652;DHT22;53334;51.976;20.144;2024-02-15T03:34:54;25.90;42.70
36652;DHT22;53334;51.976;20.144;2024-02-15T03:37:27;25.90;42.60
36652;DHT22;53334;51.976;20.144;2024-02-15T03:40:01;25.90;42.60
36652;DHT22;53334;51.976;20.144;2024-02-15T03:42:37;25.90;42.70
36652;DHT22;53334;51.976;20.144;2024-02-15T03:45:10;25.90;42.60
36652;DHT22;53334;51.976;20.144;2024-02-15T03:47:44;25.80;42.50
36652;DHT22;53334;51.976;20.144;2024-02-15T03:50:18;25.90;42.60
36652;DHT22;53334;51.976;20.144;2024-02-15T03:52:54;25.90;42.50
36652;DHT22;53334;51.976;20.144;2024-02-15T03:55:27;25.80;42.40
36652;DHT22;53334;51.976;20.144;2024-02-15T03:58:02;25.90;42.50
36652;DHT22;53334;51.976;20.144;2024-02-15T04:00:35;25.90;42.50
36652;DHT22;53334;51.976;20.144;2024-02-15T04:03:11;25.90;42.40
36652;DHT22;53334;51.976;20.144;2024-02-15T04:05:44;25.90;42.40
36652;DHT22;53334;51.976;20.144;2024-02-15T04:08:17;25.90;42.40
36652;DHT22;53334;51.976;20.144;2024-02-15T04:10:51;25.90;42.40
36652;DHT22;53334;51.976;20.144;2024-02-15T04:13:26;25.90;42.40
36652;DHT22;53334;51.976;20.144;2024-02-15T04:15:59;25.90;42.50
36652;DHT22;53334;51.976;20.144;2024-02-15T04:18:33;25.90;42.60
36652;DHT22;53334;51.976;20.144;2024-02-15T04:21:06;25.90;42.60
36652;DHT22;53334;51.976;20.144;2024-02-15T04:23:40;25.90;42.60
36652;DHT22;53334;51.976;20.144;2024-02-15T04:26:14;25.90;42.60
36652;DHT22;53334;51.976;20.144;2024-02-15T04:28:48;25.90;42.60
36652;DHT22;53334;51.976;20.144;2024-02-15T04:31:25;25.90;42.60
36652;DHT22;53334;51.976;20.144;2024-02-15T04:33:59;25.90;42.60
36652;DHT22;53334;51.976;20.144;2024-02-15T04:36:32;25.90;42.50
36652;DHT22;53334;51.976;20.144;2024-02-15T04:39:06;25.90;42.50
36652;DHT22;53334;51.976;20.144;2024-02-15T04:41:41;25.90;42.50
36652;DHT22;53334;51.976;20.144;2024-02-15T04:44:16;25.90;42.40
36652;DHT22;53334;51.976;20.144;2024-02-15T04:46:52;25.90;42.40
36652;DHT22;53334;51.976;20.144;2024-02-15T04:49:25;25.90;42.40
36652;DHT22;53334;51.976;20.144;2024-02-15T04:52:01;25.90;42.40
36652;DHT22;53334;51.976;20.144;2024-02-15T04:54:34;25.90;42.40
36652;DHT22;53334;51.976;20.144;2024-02-15T04:57:07;25.90;42.40
36652;DHT22;53334;51.976;20.144;2024-02-15T04:59:45;25.90;42.40
36652;DHT22;53334;51.976;20.144;2024-02-15T05:02:20;25.90;42.50
36652;DHT22;53334;51.976;20.144;2024-02-15T05:04:54;25.90;42.50
36652;DHT22;53334;51.976;20.144;2024-02-15T05:07:28;25.90;43.10
36652;DHT22;53334;51.976;20.144;2024-02-15T05:10:02;25.90;42.60
36652;DHT22;53334;51.976;20.144;2024-02-15T05:12:38;25.90;42.60
36652;DHT22;53334;51.976;20.144;2024-02-15T05:15:14;25.90;42.60
36652;DHT22;53334;51.976;20.144;2024-02-15T05:17:50;25.90;42.80
36652;DHT22;53334;51.976;20.144;2024-02-15T05:20:24;25.90;42.70
36652;DHT22;53334;51.976;20.144;2024-02-15T05:22:59;25.90;42.70
36652;DHT22;53334;51.976;20.144;2024-02-15T05:25:32;25.90;42.60
36652;DHT22;53334;51.976;20.144;2024-02-15T05:28:06;25.90;42.50
36652;DHT22;53334;51.976;20.144;2024-02-15T05:30:42;25.90;42.50
36652;DHT22;53334;51.976;20.144;2024-02-15T05:33:16;25.90;42.60
36652;DHT22;53334;51.976;20.144;2024-02-15T05:35:50;25.90;42.60
36652;DHT22;53334;51.976;20.144;2024-02-15T05:38:23;25.90;42.70
36652;DHT22;53334;51.976;20.144;2024-02-15T05:40:57;25.90;42.70
36652;DHT22;53334;51.976;20.144;2024-02-15T05:43:30;25.90;42.80
36652;DHT22;53334;51.976;20.144;2024-02-15T05:46:08;25.90;42.70
36652;DHT22;53334;51.976;20.144;2024-02-15T05:48:42;25.90;42.80
36652;DHT22;53334;51.976;20.144;2024-02-15T05:51:15;25.90;42.80
36652;DHT22;53334;51.976;20.144;2024-02-15T05:53:48;25.90;42.80
36652;DHT22;53334;51.976;20.144;2024-02-15T05:56:22;25.90;42.90
36652;DHT22;53334;51.976;20.144;2024-02-15T05:58:55;25.90;42.90
36652;DHT22;53334;51.976;20.144;2024-02-15T06:01:30;25.90;42.90
36652;DHT22;53334;51.976;20.144;2024-02-15T06:04:03;25.90;42.90
36652;DHT22;53334;51.976;20.144;2024-02-15T06:06:40;25.90;42.90
36652;DHT22;53334;51.976;20.144;2024-02-15T06:09:15;25.90;43.00
36652;DHT22;53334;51.976;20.144;2024-02-15T06:11:48;25.90;42.90
36652;DHT22;53334;51.976;20.144;2024-02-15T06:14:23;25.90;42.90
36652;DHT22;53334;51.976;20.144;2024-02-15T06:16:58;25.90;42.90
36652;DHT22;53334;51.976;20.144;2024-02-15T06:19:32;25.90;43.30
36652;DHT22;53334;51.976;20.144;2024-02-15T06:22:05;25.90;43.40
36652;DHT22;53334;51.976;20.144;2024-02-15T06:24:40;25.90;43.60
36652;DHT22;53334;51.976;20.144;2024-02-15T06:27:15;25.90;43.80
36652;DHT22;53334;51.976;20.144;2024-02-15T06:29:49;25.90;44.10
36652;DHT22;53334;51.976;20.144;2024-02-15T06:32:42;26.00;44.30
36652;DHT22;53334;51.976;20.144;2024-02-15T06:35:33;26.00;44.50
36652;DHT22;53334;51.976;20.144;2024-02-15T06:38:23;26.00;44.50
36652;DHT22;53334;51.976;20.144;2024-02-15T06:41:14;26.00;44.50
36652;DHT22;53334;51.976;20.144;2024-02-15T06:43:48;26.00;44.60
36652;DHT22;53334;51.976;20.144;2024-02-15T06:46:21;26.00;44.50
36652;DHT22;53334;51.976;20.144;2024-02-15T06:48:55;26.00;44.40
36652;DHT22;53334;51.976;20.144;2024-02-15T06:51:30;26.00;44.40
36652;DHT22;53334;51.976;20.144;2024-02-15T06:54:03;26.00;44.40
36652;DHT22;53334;51.976;20.144;2024-02-15T06:56:37;26.00;44.80
36652;DHT22;53334;51.976;20.144;2024-02-15T06:59:11;26.00;44.90
36652;DHT22;53334;51.976;20.144;2024-02-15T07:01:46;26.00;45.00
36652;DHT22;53334;51.976;20.144;2024-02-15T07:04:21;26.00;45.20
36652;DHT22;53334;51.976;20.144;2024-02-15T07:06:57;26.00;45.20
36652;DHT22;53334;51.976;20.144;2024-02-15T07:09:32;26.00;45.40
36652;DHT22;53334;51.976;20.144;2024-02-15T07:12:05;26.00;45.20
36652;DHT22;53334;51.976;20.144;2024-02-15T07:14:38;26.00;45.30
36652;DHT22;53334;51.976;20.144;2024-02-15T07:17:12;26.00;45.50
36652;DHT22;53334;51.976;20.144;2024-02-15T07:19:46;26.00;45.60
36652;DHT22;53334;51.976;20.144;2024-02-15T07:22:21;26.00;45.70
36652;DHT22;53334;51.976;20.144;2024-02-15T07:24:54;26.00;45.70
36652;DHT22;53334;51.976;20.144;2024-02-15T07:27:28;25.90;45.80
36652;DHT22;53334;51.976;20.144;2024-02-15T07:30:01;26.00;46.00
36652;DHT22;53334;51.976;20.144;2024-02-15T07:32:36;26.00;46.50
36652;DHT22;53334;51.976;20.144;2024-02-15T07:35:10;26.00;46.70
36652;DHT22;53334;51.976;20.144;2024-02-15T07:37:51;26.00;46.90
36652;DHT22;53334;51.976;20.144;2024-02-15T07:40:27;26.10;47.60
36652;DHT22;53334;51.976;20.144;2024-02-15T07:43:00;26.00;47.50
36652;DHT22;53334;51.976;20.144;2024-02-15T07:45:35;26.10;48.80
36652;DHT22;53334;51.976;20.144;2024-02-15T07:48:09;26.00;48.30
36652;DHT22;53334;51.976;20.144;2024-02-15T07:50:44;26.10;48.20
36652;DHT22;53334;51.976;20.144;2024-02-15T07:53:17;26.10;48.20
36652;DHT22;53334;51.976;20.144;2024-02-15T07:55:50;26.10;47.80
36652;DHT22;53334;51.976;20.144;2024-02-15T07:58:23;26.10;47.80
36652;DHT22;53334;51.976;20.144;2024-02-15T08:00:56;26.00;47.80
36652;DHT22;53334;51.976;20.144;2024-02-15T08:03:31;26.10;47.80
36652;DHT22;53334;51.976;20.144;2024-02-15T08:06:06;26.10;47.60
36652;DHT22;53334;51.976;20.144;2024-02-15T08:08:41;26.10;47.40
36652;DHT22;53334;51.976;20.144;2024-02-15T08:11:15;26.00;47.80
36652;DHT22;53334;51.976;20.144;2024-02-15T08:13:50;26.10;47.20
36652;DHT22;53334;51.976;20.144;2024-02-15T08:16:26;26.00;46.90
36652;DHT22;53334;51.976;20.144;2024-02-15T08:19:00;26.10;46.70
36652;DHT22;53334;51.976;20.144;2024-02-15T08:21:37;26.00;46.30
36652;DHT22;53334;51.976;20.144;2024-02-15T08:24:13;26.00;46.10
36652;DHT22;53334;51.976;20.144;2024-02-15T08:26:46;26.10;46.00
36652;DHT22;53334;51.976;20.144;2024-02-15T08:29:19;26.00;46.50
36652;DHT22;53334;51.976;20.144;2024-02-15T08:31:52;26.00;45.70
36652;DHT22;53334;51.976;20.144;2024-02-15T08:34:26;26.10;45.50
36652;DHT22;53334;51.976;20.144;2024-02-15T08:37:01;26.10;45.30
36652;DHT22;53334;51.976;20.144;2024-02-15T08:39:35;26.10;45.10
36652;DHT22;53334;51.976;20.144;2024-02-15T08:42:08;26.10;44.90
36652;DHT22;53334;51.976;20.144;2024-02-15T08:44:41;26.10;44.80
36652;DHT22;53334;51.976;20.144;2024-02-15T08:47:14;26.10;44.80
36652;DHT22;53334;51.976;20.144;2024-02-15T08:49:47;26.00;44.40
36652;DHT22;53334;51.976;20.144;2024-02-15T08:52:22;26.10;44.50
36652;DHT22;53334;51.976;20.144;2024-02-15T08:54:58;26.00;44.40
36652;DHT22;53334;51.976;20.144;2024-02-15T08:57:33;26.00;44.40
36652;DHT22;53334;51.976;20.144;2024-02-15T09:00:07;26.00;44.40
36652;DHT22;53334;51.976;20.144;2024-02-15T09:02:46;26.10;45.00
36652;DHT22;53334;51.976;20.144;2024-02-15T09:05:21;26.10;45.10
36652;DHT22;53334;51.976;20.144;2024-02-15T09:07:56;26.00;44.90
36652;DHT22;53334;51.976;20.144;2024-02-15T09:10:29;26.10;45.20
36652;DHT22;53334;51.976;20.144;2024-02-15T09:13:03;26.00;45.30
36652;DHT22;53334;51.976;20.144;2024-02-15T09:15:37;26.10;45.40
36652;DHT22;53334;51.976;20.144;2024-02-15T09:18:12;26.00;45.20
36652;DHT22;53334;51.976;20.144;2024-02-15T09:20:47;26.00;44.60
36652;DHT22;53334;51.976;20.144;2024-02-15T09:23:22;26.00;39.20
36652;DHT22;53334;51.976;20.144;2024-02-15T09:25:56;25.90;35.60
36652;DHT22;53334;51.976;20.144;2024-02-15T09:28:29;25.80;35.60
36652;DHT22;53334;51.976;20.144;2024-02-15T09:31:03;25.70;36.60
36652;DHT22;53334;51.976;20.144;2024-02-15T09:33:36;25.60;36.90
36652;DHT22;53334;51.976;20.144;2024-02-15T09:36:10;25.60;37.50
36652;DHT22;53334;51.976;20.144;2024-02-15T09:38:45;25.60;38.00
36652;DHT22;53334;51.976;20.144;2024-02-15T09:41:20;25.60;38.40
36652;DHT22;53334;51.976;20.144;2024-02-15T09:43:53;25.60;38.70
36652;DHT22;53334;51.976;20.144;2024-02-15T09:46:27;25.60;38.90
36652;DHT22;53334;51.976;20.144;2024-02-15T09:49:04;25.60;39.60
36652;DHT22;53334;51.976;20.144;2024-02-15T09:51:40;25.60;39.50
36652;DHT22;53334;51.976;20.144;2024-02-15T09:54:16;25.70;39.70
36652;DHT22;53334;51.976;20.144;2024-02-15T09:56:54;25.70;39.70
36652;DHT22;53334;51.976;20.144;2024-02-15T09:59:29;25.70;39.90
36652;DHT22;53334;51.976;20.144;2024-02-15T10:02:03;25.70;39.90
36652;DHT22;53334;51.976;20.144;2024-02-15T10:04:37;25.70;40.00
36652;DHT22;53334;51.976;20.144;2024-02-15T10:07:11;25.70;39.90
36652;DHT22;53334;51.976;20.144;2024-02-15T10:09:47;25.70;39.90
36652;DHT22;53334;51.976;20.144;2024-02-15T10:12:20;25.70;39.80
36652;DHT22;53334;51.976;20.144;2024-02-15T10:14:54;25.70;39.70
36652;DHT22;53334;51.976;20.144;2024-02-15T10:17:27;25.70;39.70
36652;DHT22;53334;51.976;20.144;2024-02-15T10:20:07;25.80;39.60
36652;DHT22;53334;51.976;20.144;2024-02-15T10:22:42;25.80;39.50
36652;DHT22;53334;51.976;20.144;2024-02-15T10:25:16;25.80;39.50
36652;DHT22;53334;51.976;20.144;2024-02-15T10:27:50;25.80;39.40
36652;DHT22;53334;51.976;20.144;2024-02-15T10:30:25;25.80;39.30
36652;DHT22;53334;51.976;20.144;2024-02-15T10:32:59;25.80;39.40
36652;DHT22;53334;51.976;20.144;2024-02-15T10:35:32;25.80;39.30
36652;DHT22;53334;51.976;20.144;2024-02-15T10:38:09;25.80;39.30
36652;DHT22;53334;51.976;20.144;2024-02-15T10:40:44;25.80;39.40
36652;DHT22;53334;51.976;20.144;2024-02-15T10:43:18;25.80;39.40
36652;DHT22;53334;51.976;20.144;2024-02-15T10:45:51;25.80;40.00
36652;DHT22;53334;51.976;20.144;2024-02-15T10:48:25;25.80;39.70
36652;DHT22;53334;51.976;20.144;2024-02-15T10:51:03;25.80;39.60
36652;DHT22;53334;51.976;20.144;2024-02-15T10:53:45;25.80;39.60
36652;DHT22;53334;51.976;20.144;2024-02-15T10:56:27;25.80;39.70
36652;DHT22;53334;51.976;20.144;2024-02-15T10:59:11;25.80;40.00
36652;DHT22;53334;51.976;20.144;2024-02-15T11:01:49;25.80;39.90
36652;DHT22;53334;51.976;20.144;2024-02-15T11:04:23;25.80;40.00
36652;DHT22;53334;51.976;20.144;2024-02-15T11:07:04;25.80;40.00
36652;DHT22;53334;51.976;20.144;2024-02-15T11:09:39;25.80;40.00
36652;DHT22;53334;51.976;20.144;2024-02-15T11:12:14;25.80;40.00
36652;DHT22;53334;51.976;20.144;2024-02-15T11:14:48;25.80;40.10
36652;DHT22;53334;51.976;20.144;2024-02-15T11:17:45;25.80;40.30
36652;DHT22;53334;51.976;20.144;2024-02-15T11:20:50;25.80;40.20
36652;DHT22;53334;51.976;20.144;2024-02-15T11:23:26;25.80;40.30
36652;DHT22;53334;51.976;20.144;2024-02-15T11:26:45;25.80;40.30
36652;DHT22;53334;51.976;20.144;2024-02-15T11:29:50;25.80;40.40
36652;DHT22;53334;51.976;20.144;2024-02-15T11:32:38;25.80;41.00
36652;DHT22;53334;51.976;20.144;2024-02-15T11:35:13;25.80;41.60
36652;DHT22;53334;51.976;20.144;2024-02-15T11:37:53;25.80;41.90
36652;DHT22;53334;51.976;20.144;2024-02-15T11:40:27;25.80;42.20
36652;DHT22;53334;51.976;20.144;2024-02-15T11:43:01;25.80;42.10
36652;DHT22;53334;51.976;20.144;2024-02-15T11:45:37;25.80;42.50
36652;DHT22;53334;51.976;20.144;2024-02-15T11:48:14;25.80;42.70
36652;DHT22;53334;51.976;20.144;2024-02-15T11:50:47;25.80;42.80
36652;DHT22;53334;51.976;20.144;2024-02-15T11:53:21;25.80;42.70
36652;DHT22;53334;51.976;20.144;2024-02-15T11:56:00;25.80;42.70
36652;DHT22;53334;51.976;20.144;2024-02-15T11:58:33;25.80;42.40
36652;DHT22;53334;51.976;20.144;2024-02-15T12:01:25;25.80;42.10
36652;DHT22;53334;51.976;20.144;2024-02-15T12:04:16;25.80;41.90
36652;DHT22;53334;51.976;20.144;2024-02-15T12:07:07;25.80;41.90
36652;DHT22;53334;51.976;20.144;2024-02-15T12:09:58;25.80;41.90
36652;DHT22;53334;51.976;20.144;2024-02-15T12:12:53;25.80;41.50
36652;DHT22;53334;51.976;20.144;2024-02-15T12:15:56;25.80;41.50
36652;DHT22;53334;51.976;20.144;2024-02-15T12:18:48;25.80;41.10
36652;DHT22;53334;51.976;20.144;2024-02-15T12:21:26;25.80;41.20
36652;DHT22;53334;51.976;20.144;2024-02-15T12:24:00;25.80;41.10
36652;DHT22;53334;51.976;20.144;2024-02-15T12:26:33;25.80;41.00
36652;DHT22;53334;51.976;20.144;2024-02-15T12:29:07;25.80;40.90
36652;DHT22;53334;51.976;20.144;2024-02-15T12:31:41;25.80;40.80
36652;DHT22;53334;51.976;20.144;2024-02-15T12:34:20;25.80;40.70
36652;DHT22;53334;51.976;20.144;2024-02-15T12:37:06;25.80;40.70
36652;DHT22;53334;51.976;20.144;2024-02-15T12:39:41;25.80;40.60
36652;DHT22;53334;51.976;20.144;2024-02-15T12:42:14;25.80;40.60
36652;DHT22;53334;51.976;20.144;2024-02-15T12:44:48;25.80;40.50
36652;DHT22;53334;51.976;20.144;2024-02-15T12:47:22;25.80;40.50
36652;DHT22;53334;51.976;20.144;2024-02-15T12:49:58;25.80;40.40
36652;DHT22;53334;51.976;20.144;2024-02-15T12:52:36;25.70;40.20
36652;DHT22;53334;51.976;20.144;2024-02-15T12:55:14;25.70;40.20
36652;DHT22;53334;51.976;20.144;2024-02-15T12:57:49;25.70;40.10
36652;DHT22;53334;51.976;20.144;2024-02-15T13:00:25;25.70;40.70
36652;DHT22;53334;51.976;20.144;2024-02-15T13:03:03;25.70;40.00
36652;DHT22;53334;51.976;20.144;2024-02-15T13:05:39;25.70;40.20
36652;DHT22;53334;51.976;20.144;2024-02-15T13:08:12;25.70;40.60
36652;DHT22;53334;51.976;20.144;2024-02-15T13:10:47;25.70;40.70
36652;DHT22;53334;51.976;20.144;2024-02-15T13:13:20;25.70;40.90
36652;DHT22;53334;51.976;20.144;2024-02-15T13:15:54;25.70;41.00
36652;DHT22;53334;51.976;20.144;2024-02-15T13:18:28;25.70;41.50
36652;DHT22;53334;51.976;20.144;2024-02-15T13:21:04;25.70;40.90
36652;DHT22;53334;51.976;20.144;2024-02-15T13:23:38;25.70;41.10
36652;DHT22;53334;51.976;20.144;2024-02-15T13:26:11;25.70;40.80
36652;DHT22;53334;51.976;20.144;2024-02-15T13:28:47;25.70;40.60
36652;DHT22;53334;51.976;20.144;2024-02-15T13:31:21;25.70;40.60
36652;DHT22;53334;51.976;20.144;2024-02-15T13:33:55;25.70;40.50
36652;DHT22;53334;51.976;20.144;2024-02-15T13:36:29;25.70;40.50
36652;DHT22;53334;51.976;20.144;2024-02-15T13:39:03;25.70;40.40
36652;DHT22;53334;51.976;20.144;2024-02-15T13:41:37;25.70;40.40
36652;DHT22;53334;51.976;20.144;2024-02-15T13:44:10;25.70;40.30
36652;DHT22;53334;51.976;20.144;2024-02-15T13:46:43;25.70;40.30
36652;DHT22;53334;51.976;20.144;2024-02-15T13:49:16;25.70;40.40
36652;DHT22;53334;51.976;20.144;2024-02-15T13:52:04;25.70;40.30
36652;DHT22;53334;51.976;20.144;2024-02-15T13:54:38;25.70;40.40
36652;DHT22;53334;51.976;20.144;2024-02-15T13:57:11;25.70;40.40
36652;DHT22;53334;51.976;20.144;2024-02-15T13:59:46;25.70;40.40
36652;DHT22;53334;51.976;20.144;2024-02-15T14:02:20;25.70;40.50
36652;DHT22;53334;51.976;20.144;2024-02-15T14:04:53;25.70;40.40
36652;DHT22;53334;51.976;20.144;2024-02-15T14:07:28;25.60;40.50
36652;DHT22;53334;51.976;20.144;2024-02-15T14:10:04;25.60;40.50
36652;DHT22;53334;51.976;20.144;2024-02-15T14:12:38;25.60;40.50
36652;DHT22;53334;51.976;20.144;2024-02-15T14:15:11;25.60;40.60
36652;DHT22;53334;51.976;20.144;2024-02-15T14:17:45;25.60;40.80
36652;DHT22;53334;51.976;20.144;2024-02-15T14:20:18;25.60;41.00
36652;DHT22;53334;51.976;20.144;2024-02-15T14:22:55;25.60;41.70
36652;DHT22;53334;51.976;20.144;2024-02-15T14:25:29;25.60;41.90
36652;DHT22;53334;51.976;20.144;2024-02-15T14:28:03;25.60;42.30
36652;DHT22;53334;51.976;20.144;2024-02-15T14:30:40;25.70;43.30
36652;DHT22;53334;51.976;20.144;2024-02-15T14:33:31;25.70;43.40
36652;DHT22;53334;51.976;20.144;2024-02-15T14:36:07;25.70;44.10
36652;DHT22;53334;51.976;20.144;2024-02-15T14:38:41;25.70;44.90
36652;DHT22;53334;51.976;20.144;2024-02-15T14:41:15;25.70;46.00
36652;DHT22;53334;51.976;20.144;2024-02-15T14:44:04;25.70;46.50
36652;DHT22;53334;51.976;20.144;2024-02-15T14:46:39;25.70;47.10
36652;DHT22;53334;51.976;20.144;2024-02-15T14:49:12;25.80;48.40
36652;DHT22;53334;51.976;20.144;2024-02-15T14:51:46;25.70;49.20
36652;DHT22;53334;51.976;20.144;2024-02-15T14:54:22;25.80;49.40
36652;DHT22;53334;51.976;20.144;2024-02-15T14:56:56;25.80;49.20
36652;DHT22;53334;51.976;20.144;2024-02-15T14:59:30;25.80;49.00
36652;DHT22;53334;51.976;20.144;2024-02-15T15:02:03;25.80;49.00
36652;DHT22;53334;51.976;20.144;2024-02-15T15:04:43;25.80;49.10
36652;DHT22;53334;51.976;20.144;2024-02-15T15:07:40;25.80;48.90
36652;DHT22;53334;51.976;20.144;2024-02-15T15:10:32;25.70;49.00
36652;DHT22;53334;51.976;20.144;2024-02-15T15:13:23;25.80;49.10
36652;DHT22;53334;51.976;20.144;2024-02-15T15:15:58;25.70;49.00
36652;DHT22;53334;51.976;20.144;2024-02-15T15:18:31;25.80;49.10
36652;DHT22;53334;51.976;20.144;2024-02-15T15:21:05;25.80;49.30
36652;DHT22;53334;51.976;20.144;2024-02-15T15:23:38;25.80;49.40
36652;DHT22;53334;51.976;20.144;2024-02-15T15:26:18;25.80;49.50
36652;DHT22;53334;51.976;20.144;2024-02-15T15:28:52;25.80;49.60
36652;DHT22;53334;51.976;20.144;2024-02-15T15:31:29;25.80;49.60
36652;DHT22;53334;51.976;20.144;2024-02-15T15:34:03;25.80;49.40
36652;DHT22;53334;51.976;20.144;2024-02-15T15:36:37;25.80;49.50
36652;DHT22;53334;51.976;20.144;2024-02-15T15:39:10;25.80;49.70
36652;DHT22;53334;51.976;20.144;2024-02-15T15:41:45;25.80;49.70
36652;DHT22;53334;51.976;20.144;2024-02-15T15:44:18;25.80;49.70
36652;DHT22;53334;51.976;20.144;2024-02-15T15:46:52;25.80;49.90
36652;DHT22;53334;51.976;20.144;2024-02-15T15:49:26;25.80;49.80
36652;DHT22;53334;51.976;20.144;2024-02-15T15:52:02;25.80;49.60
36652;DHT22;53334;51.976;20.144;2024-02-15T15:54:36;25.80;49.60
36652;DHT22;53334;51.976;20.144;2024-02-15T15:57:13;25.80;50.50
36652;DHT22;53334;51.976;20.144;2024-02-15T15:59:47;25.80;50.00
36652;DHT22;53334;51.976;20.144;2024-02-15T16:02:21;25.80;49.90
36652;DHT22;53334;51.976;20.144;2024-02-15T16:04:55;25.80;49.70
36652;DHT22;53334;51.976;20.144;2024-02-15T16:07:33;25.80;50.20